Time;durP1;ratioP1;P1;durP2;ratioP2;P2;SDS_P1;SDS_P2;PMS_P1;PMS_P2;Temp;Humidity;BMP_temperature;BMP_pressure;BME280_temperature;BME280_humidity;BME280_pressure;Samples;Min_cycle;Max_cycle;Signal;HPM_P1;HPM_P2
2022/09/27 00:01:51;;;;;;;;;;;;;;;22.13;62.90;97693.59;7310658;19;129493;-38
2022/09/27 00:04:16;;;;;;;;;;;;;;;22.00;62.88;97680.41;7311525;19;129649;-39
2022/09/27 00:06:42;;;;;;;;;;;;;;;22.11;63.12;97685.09;7310960;19;129655;-37
2022/09/27 00:09:08;;;;;;;;;;;;;;;22.13;63.32;97680.50;7311627;19;129768;-39
2022/09/27 00:11:35;;;;;;;;;;;;;;;22.13;63.48;97680.50;7309611;19;130051;-40
2022/09/27 00:14:00;;;;;;;;;;;;;;;22.13;63.10;97680.50;7311521;19;130141;-36
2022/09/27 00:16:27;;;;;;;;;;;;;;;22.13;63.49;97680.50;7312250;19;131275;-40
2022/09/27 00:18:56;;;;;;;;;;;;;;;22.13;63.25;97670.03;7310795;19;129140;-37
2022/09/27 00:21:22;;;;;;;;;;;;;;;22.12;62.99;97665.78;7310608;19;129805;-42
2022/09/27 00:23:47;;;;;;;;;;;;;;;22.13;63.15;97662.97;7308709;19;129638;-38
2022/09/27 00:26:12;;;;;;;;;;;;;;;22.12;63.59;97650.06;7310560;19;129249;-40
2022/09/27 00:28:38;;;;;;;;;;;;;;;22.15;63.43;97654.97;7310953;19;128865;-38
2022/09/27 00:31:03;;;;;;;;;;;;;;;22.11;63.06;97658.94;7310077;19;129914;-40
2022/09/27 00:33:28;;;;;;;;;;;;;;;22.11;63.41;97645.84;7307345;19;129538;-37
2022/09/27 00:35:54;;;;;;;;;;;;;;;22.14;63.57;97648.09;7311637;19;131011;-38
2022/09/27 00:38:19;;;;;;;;;;;;;;;22.15;63.25;97644.50;7316126;19;129953;-39
2022/09/27 00:40:45;;;;;;;;;;;;;;;22.16;63.10;97640.84;7317691;19;129491;-37
2022/09/27 00:43:21;;;;;;;;;;;;;;;22.14;63.10;97638.44;7314166;19;130311;-39
2022/09/27 00:45:49;;;;;;;;;;;;;;;22.15;63.62;97636.63;7313409;19;129864;-38
2022/09/27 00:48:16;;;;;;;;;;;;;;;22.14;62.85;97624.53;7317877;19;129004;-39
2022/09/27 00:50:43;;;;;;;;;;;;;;;22.03;63.60;97611.97;7316272;19;130116;-37
2022/09/27 00:53:08;;;;;;;;;;;;;;;22.12;63.10;97619.50;7313582;19;129703;-38
2022/09/27 00:55:37;;;;;;;;;;;;;;;22.12;63.47;97618.66;7315744;19;128895;-37
2022/09/27 00:58:03;;;;;;;;;;;;;;;22.12;63.09;97613.44;7315311;19;129279;-39
2022/09/27 01:00:30;;;;;;;;;;;;;;;22.12;63.29;97608.19;7316035;19;130105;-38
2022/09/27 01:02:56;;;;;;;;;;;;;;;22.07;63.99;97600.13;7313794;19;129344;-39
2022/09/27 01:05:23;;;;;;;;;;;;;;;22.12;63.48;97595.13;7315366;19;129560;-38
2022/09/27 01:07:49;;;;;;;;;;;;;;;22.14;62.97;97600.97;7316626;19;129916;-39
2022/09/27 01:10:15;;;;;;;;;;;;;;;22.11;63.79;97589.09;7315964;19;129176;-38
2022/09/27 01:12:43;;;;;;;;;;;;;;;22.06;63.13;97573.16;7312676;19;131280;-38
2022/09/27 01:15:15;;;;;;;;;;;;;;;22.12;63.19;97588.09;7316330;19;129088;-38
2022/09/27 01:17:59;;;;;;;;;;;;;;;22.04;63.79;97563.88;7316484;19;129569;-38
2022/09/27 01:20:48;;;;;;;;;;;;;;;22.13;63.57;97581.06;7312436;19;149665;-40
2022/09/27 01:23:25;;;;;;;;;;;;;;;22.12;63.06;97579.41;7313163;19;129328;-38
2022/09/27 01:25:53;;;;;;;;;;;;;;;22.11;63.06;97581.25;7315901;19;130582;-38
2022/09/27 01:28:27;;;;;;;;;;;;;;;22.10;63.56;97581.44;7315379;19;129055;-37
2022/09/27 01:31:07;;;;;;;;;;;;;;;22.05;63.39;97553.22;7315844;19;130270;-38
2022/09/27 01:33:52;;;;;;;;;;;;;;;22.12;63.17;97569.75;7313819;19;129825;-38
2022/09/27 01:36:36;;;;;;;;;;;;;;;22.13;63.67;97562.72;7313573;19;128953;-39
2022/09/27 01:39:01;;;;;;;;;;;;;;;22.13;63.48;97557.50;7315197;19;129099;-40
2022/09/27 01:41:36;;;;;;;;;;;;;;;22.12;63.16;97550.63;7314439;19;129988;-37
2022/09/27 01:44:08;;;;;;;;;;;;;;;22.14;63.25;97546.84;7315818;19;129237;-37
2022/09/27 01:46:38;;;;;;;;;;;;;;;22.12;63.05;97540.16;7316261;19;130318;-39
2022/09/27 01:49:07;;;;;;;;;;;;;;;22.13;62.90;97536.56;7313005;19;129541;-38
2022/09/27 01:51:55;;;;;;;;;;;;;;;22.11;63.59;97533.31;7316067;19;130273;-40
2022/09/27 01:54:24;;;;;;;;;;;;;;;22.03;63.77;97512.53;7313771;19;130029;-37
2022/09/27 01:56:52;;;;;;;;;;;;;;;22.11;63.74;97528.09;7312934;19;128873;-37
2022/09/27 01:59:27;;;;;;;;;;;;;;;22.12;63.56;97527.06;7314062;19;130399;-40
2022/09/27 02:01:53;;;;;;;;;;;;;;;22.10;63.55;97524.66;7314002;19;130094;-38
2022/09/27 02:04:22;;;;;;;;;;;;;;;22.15;63.05;97524.88;7313998;19;129993;-37
2022/09/27 02:06:51;;;;;;;;;;;;;;;22.12;63.11;97529.69;7315261;19;129062;-39
2022/09/27 02:09:17;;;;;;;;;;;;;;;22.14;63.88;97523.28;7314864;19;130137;-39
2022/09/27 02:11:45;;;;;;;;;;;;;;;22.13;63.79;97526.09;7313600;19;130711;-37
2022/09/27 02:14:15;;;;;;;;;;;;;;;22.01;63.29;97511.94;7314826;19;129282;-40
2022/09/27 02:16:44;;;;;;;;;;;;;;;22.11;63.31;97518.44;7314061;19;129652;-38
2022/09/27 02:19:12;;;;;;;;;;;;;;;22.02;63.13;97501.25;7314676;19;129575;-39
2022/09/27 02:21:41;;;;;;;;;;;;;;;22.12;63.76;97514.00;7312811;19;129194;-39
2022/09/27 02:24:10;;;;;;;;;;;;;;;22.14;63.70;97509.38;7314990;19;129426;-40
2022/09/27 02:26:40;;;;;;;;;;;;;;;22.11;63.21;97509.78;7313890;19;129274;-40
2022/09/27 02:29:11;;;;;;;;;;;;;;;22.02;63.32;97493.41;7316228;19;129372;-37
2022/09/27 02:31:37;;;;;;;;;;;;;;;22.10;63.34;97503.72;7312421;19;129802;-40
2022/09/27 02:34:05;;;;;;;;;;;;;;;22.05;63.82;97479.94;7311707;19;129594;-38
2022/09/27 02:36:30;;;;;;;;;;;;;;;22.12;63.72;97490.44;7313262;19;129142;-40
2022/09/27 02:38:56;;;;;;;;;;;;;;;22.12;62.86;97482.59;7314342;19;129155;-38
2022/09/27 02:41:21;;;;;;;;;;;;;;;22.12;63.74;97483.41;7313204;19;129081;-39
2022/09/27 02:43:49;;;;;;;;;;;;;;;22.03;63.68;97473.31;7310603;19;129219;-39
2022/09/27 02:46:33;;;;;;;;;;;;;;;22.10;63.27;97482.78;7313263;19;129477;-40
2022/09/27 02:49:14;;;;;;;;;;;;;;;22.09;63.92;97472.50;7313940;19;129698;-38
2022/09/27 02:51:49;;;;;;;;;;;;;;;22.03;63.50;97454.97;7311396;19;129101;-38
2022/09/27 02:54:33;;;;;;;;;;;;;;;22.10;63.96;97463.69;7311602;19;130272;-37
2022/09/27 02:57:16;;;;;;;;;;;;;;;22.09;63.26;97459.44;7312881;19;129315;-38
2022/09/27 02:59:52;;;;;;;;;;;;;;;22.11;63.29;97466.09;7311677;19;129122;-39
2022/09/27 03:02:29;;;;;;;;;;;;;;;22.14;63.18;97464.88;7312648;19;129492;-39
2022/09/27 03:04:58;;;;;;;;;;;;;;;22.10;63.31;97458.44;7312774;19;129357;-39
2022/09/27 03:07:24;;;;;;;;;;;;;;;22.06;63.72;97457.19;7313495;19;129517;-38
2022/09/27 03:09:50;;;;;;;;;;;;;;;22.10;63.36;97461.06;7312864;19;129205;-38
2022/09/27 03:12:21;;;;;;;;;;;;;;;22.12;63.59;97445.94;7309818;19;131188;-37
2022/09/27 03:14:46;;;;;;;;;;;;;;;22.10;63.78;97447.97;7311987;19;130354;-40
2022/09/27 03:17:12;;;;;;;;;;;;;;;22.10;63.21;97445.34;7311436;19;129514;-38
2022/09/27 03:19:37;;;;;;;;;;;;;;;22.09;63.08;97441.09;7312718;19;129501;-37
2022/09/27 03:22:02;;;;;;;;;;;;;;;22.05;63.64;97432.84;7310632;19;129208;-38
2022/09/27 03:24:27;;;;;;;;;;;;;;;22.15;63.12;97437.72;7312552;19;130210;-37
2022/09/27 03:26:53;;;;;;;;;;;;;;;22.02;63.68;97425.38;7311710;19;130692;-38
2022/09/27 03:29:18;;;;;;;;;;;;;;;22.12;63.33;97440.72;7312126;19;129023;-42
2022/09/27 03:31:43;;;;;;;;;;;;;;;22.10;63.44;97442.75;7311264;19;129967;-37
2022/09/27 03:34:08;;;;;;;;;;;;;;;22.13;63.12;97447.59;7309021;19;129180;-38
2022/09/27 03:36:34;;;;;;;;;;;;;;;22.13;63.07;97443.13;7309489;19;130167;-39
2022/09/27 03:38:59;;;;;;;;;;;;;;;22.11;63.26;97439.94;7310304;19;128851;-39
2022/09/27 03:41:24;;;;;;;;;;;;;;;22.10;63.49;97442.75;7311566;19;129603;-37
2022/09/27 03:43:49;;;;;;;;;;;;;;;22.13;63.27;97437.13;7309069;19;129410;-37
2022/09/27 03:46:15;;;;;;;;;;;;;;;22.10;63.88;97432.28;7309131;19;130330;-39
2022/09/27 03:48:41;;;;;;;;;;;;;;;22.01;63.25;97417.72;7311626;19;129383;-37
2022/09/27 03:51:07;;;;;;;;;;;;;;;22.11;63.24;97434.69;7310703;19;129956;-38
2022/09/27 03:53:32;;;;;;;;;;;;;;;22.15;63.50;97433.28;7308754;19;129280;-38
2022/09/27 03:55:57;;;;;;;;;;;;;;;22.13;63.61;97416.19;7310265;19;129406;-38
2022/09/27 03:58:23;;;;;;;;;;;;;;;22.12;63.65;97410.13;7312470;19;129615;-37
2022/09/27 04:00:48;;;;;;;;;;;;;;;22.12;63.83;97414.53;7311368;19;129430;-38
2022/09/27 04:03:13;;;;;;;;;;;;;;;22.05;63.76;97392.81;7308249;19;129329;-39
2022/09/27 04:05:39;;;;;;;;;;;;;;;22.12;63.49;97404.91;7309728;19;129680;-39
2022/09/27 04:08:05;;;;;;;;;;;;;;;22.04;63.54;97380.69;7308087;19;129173;-38
2022/09/27 04:10:30;;;;;;;;;;;;;;;22.13;63.33;97395.25;7309288;19;130942;-38
2022/09/27 04:12:56;;;;;;;;;;;;;;;22.14;63.96;97387.19;7307711;19;130366;-41
2022/09/27 04:15:21;;;;;;;;;;;;;;;22.13;63.24;97390.78;7308337;19;129114;-38
2022/09/27 04:17:46;;;;;;;;;;;;;;;22.19;64.11;97389.22;7311057;19;129358;-39
2022/09/27 04:20:12;;;;;;;;;;;;;;;22.24;63.25;97386.81;7309640;19;129606;-37
2022/09/27 04:22:38;;;;;;;;;;;;;;;22.19;63.27;97383.97;7308243;19;130362;-37
2022/09/27 04:25:03;;;;;;;;;;;;;;;22.14;63.73;97387.19;7309594;19;129051;-39
2022/09/27 04:27:29;;;;;;;;;;;;;;;22.13;63.62;97385.56;7309173;19;129448;-38
2022/09/27 04:29:54;;;;;;;;;;;;;;;22.05;63.43;97379.72;7308205;19;128985;-40
2022/09/27 04:32:20;;;;;;;;;;;;;;;22.14;63.00;97391.59;7307496;19;131140;-39
2022/09/27 04:37:29;;;;;;;;;;;;;;;22.13;63.65;97390.78;7311505;19;129124;-37
2022/09/27 04:39:54;;;;;;;;;;;;;;;22.12;63.16;97376.09;7309922;19;130393;-37
2022/09/27 04:42:19;;;;;;;;;;;;;;;22.14;62.98;97381.16;7309797;19;129784;-37
2022/09/27 04:44:46;;;;;;;;;;;;;;;22.14;63.06;97381.16;7310176;19;129160;-40
2022/09/27 04:47:11;;;;;;;;;;;;;;;22.16;63.42;97384.38;7310286;19;129979;-36
2022/09/27 04:49:37;;;;;;;;;;;;;;;22.14;63.03;97381.97;7308594;19;129019;-38
2022/09/27 04:52:03;;;;;;;;;;;;;;;22.14;63.84;97381.16;7309025;19;130263;-37
2022/09/27 04:54:29;;;;;;;;;;;;;;;22.11;63.51;97376.31;7307309;19;130046;-37
2022/09/27 04:56:54;;;;;;;;;;;;;;;22.12;63.10;97378.72;7308874;19;129092;-37
2022/09/27 04:59:19;;;;;;;;;;;;;;;22.13;63.84;97371.69;7308643;19;129437;-38
2022/09/27 05:01:45;;;;;;;;;;;;;;;22.10;63.60;97377.31;7304945;19;129412;-37
2022/09/27 05:04:10;;;;;;;;;;;;;;;22.11;63.49;97373.69;7308048;19;128952;-38
2022/09/27 05:06:35;;;;;;;;;;;;;;;22.14;63.07;97375.91;7307562;19;129515;-39
2022/09/27 05:09:00;;;;;;;;;;;;;;;22.12;63.32;97372.66;7307461;19;129078;-38
2022/09/27 05:11:26;;;;;;;;;;;;;;;22.13;63.16;97374.31;7309759;19;130160;-37
2022/09/27 05:13:51;;;;;;;;;;;;;;;22.06;63.71;97363.00;7305370;19;129168;-38
2022/09/27 05:16:17;;;;;;;;;;;;;;;22.13;63.30;97369.06;7307414;19;129364;-39
2022/09/27 05:18:42;;;;;;;;;;;;;;;22.06;64.06;97363.00;7308330;19;129200;-39
2022/09/27 05:21:07;;;;;;;;;;;;;;;22.12;63.82;97370.88;7308919;19;130262;-39
2022/09/27 05:23:33;;;;;;;;;;;;;;;22.14;63.20;97370.69;7308248;19;130496;-42
2022/09/27 05:26:02;;;;;;;;;;;;;;;22.14;63.78;97370.69;7315615;19;129228;-38
2022/09/27 05:28:27;;;;;;;;;;;;;;;22.12;63.05;97377.91;7317494;19;129197;-38
2022/09/27 05:30:53;;;;;;;;;;;;;;;22.14;63.79;97362.81;7317185;19;129660;-39
2022/09/27 05:33:18;;;;;;;;;;;;;;;22.14;62.91;97371.50;7312783;19;128967;-43
2022/09/27 05:35:49;;;;;;;;;;;;;;;22.13;63.83;97375.09;7315966;19;128867;-36
2022/09/27 05:38:15;;;;;;;;;;;;;;;22.13;63.44;97366.47;7314723;19;130187;-37
2022/09/27 05:40:43;;;;;;;;;;;;;;;22.12;63.77;97367.44;7316628;19;129169;-39
2022/09/27 05:43:08;;;;;;;;;;;;;;;22.12;63.09;97367.44;7314756;19;129459;-38
2022/09/27 05:45:33;;;;;;;;;;;;;;;22.13;63.74;97363.84;7316549;19;128877;-40
2022/09/27 05:47:59;;;;;;;;;;;;;;;22.03;63.75;97347.69;7315674;19;130078;-39
2022/09/27 05:50:25;;;;;;;;;;;;;;;22.13;63.10;97359.38;7316859;19;129560;-37
2022/09/27 05:52:50;;;;;;;;;;;;;;;22.12;63.32;97359.59;7314040;19;128862;-37
2022/09/27 05:55:15;;;;;;;;;;;;;;;22.12;63.33;97367.44;7315828;19;129169;-38
2022/09/27 05:57:41;;;;;;;;;;;;;;;22.12;63.73;97365.63;7317414;19;129022;-39
2022/09/27 06:00:08;;;;;;;;;;;;;;;22.13;63.44;97366.47;7316848;19;130277;-39
2022/09/27 06:02:34;;;;;;;;;;;;;;;22.11;63.65;97371.06;7314253;19;128925;-39
2022/09/27 06:04:59;;;;;;;;;;;;;;;22.13;63.78;97364.63;7315478;19;128930;-38
2022/09/27 06:07:25;;;;;;;;;;;;;;;22.12;63.38;97367.44;7315153;19;131351;-37
2022/09/27 06:09:50;;;;;;;;;;;;;;;22.13;63.48;97366.47;7315571;19;129649;-38
2022/09/27 06:12:15;;;;;;;;;;;;;;;22.16;63.16;97366.06;7313384;19;129153;-39
2022/09/27 06:14:41;;;;;;;;;;;;;;;22.13;63.84;97374.31;7311833;19;129214;-39
2022/09/27 06:17:06;;;;;;;;;;;;;;;22.13;63.42;97369.06;7315617;19;129241;-39
2022/09/27 06:19:31;;;;;;;;;;;;;;;22.11;63.16;97378.91;7315243;19;129901;-41
2022/09/27 06:21:56;;;;;;;;;;;;;;;22.11;63.68;97377.13;7314398;19;129252;-38
2022/09/27 06:24:22;;;;;;;;;;;;;;;22.14;63.20;97378.53;7313449;19;128901;-38
2022/09/27 06:26:47;;;;;;;;;;;;;;;22.11;63.29;97373.69;7313907;19;131064;-38
2022/09/27 06:29:12;;;;;;;;;;;;;;;22.11;63.91;97378.91;7315088;19;129921;-39
2022/09/27 06:31:38;;;;;;;;;;;;;;;22.15;63.22;97373.09;7313212;19;130867;-39
2022/09/27 06:34:03;;;;;;;;;;;;;;;22.14;63.55;97386.38;7312343;19;129307;-40
2022/09/27 06:36:28;;;;;;;;;;;;;;;22.13;63.49;97374.31;7312304;19;129255;-38
2022/09/27 06:38:53;;;;;;;;;;;;;;;22.14;63.76;97375.91;7314159;19;129759;-39
2022/09/27 06:41:19;;;;;;;;;;;;;;;22.13;63.49;97376.91;7314109;19;129524;-38
2022/09/27 06:43:44;;;;;;;;;;;;;;;22.14;63.57;97375.91;7311555;19;130100;-38
2022/09/27 06:46:09;;;;;;;;;;;;;;;22.12;63.48;97375.28;7313398;19;129157;-38
2022/09/27 06:48:37;;;;;;;;;;;;;;;22.12;63.21;97373.50;7315521;19;130680;-37
2022/09/27 06:51:02;;;;;;;;;;;;;;;22.12;63.69;97372.66;7314428;19;129173;-39
2022/09/27 06:53:29;;;;;;;;;;;;;;;22.13;63.54;97371.69;7310984;19;130933;-37
2022/09/27 06:56:00;;;;;;;;;;;;;;;22.14;63.54;97361.03;7313290;19;129343;-37
2022/09/27 07:01:10;;;;;;;;;;;;;;;22.13;63.76;97372.47;7314556;19;129067;-38
2022/09/27 07:03:38;;;;;;;;;;;;;;;22.13;63.99;97369.84;7312300;19;129263;-38
2022/09/27 07:06:05;;;;;;;;;;;;;;;22.11;63.60;97377.13;7314217;19;129475;-39
2022/09/27 07:08:30;;;;;;;;;;;;;;;22.10;63.85;97390.41;7314458;19;129432;-36
2022/09/27 07:11:00;;;;;;;;;;;;;;;22.00;63.43;97375.06;7314281;19;129891;-37
2022/09/27 07:13:29;;;;;;;;;;;;;;;22.12;63.13;97398.84;7310679;19;129364;-38
2022/09/27 07:15:54;;;;;;;;;;;;;;;22.15;63.58;97394.03;7312724;19;129290;-37
2022/09/27 07:18:19;;;;;;;;;;;;;;;22.14;63.32;97394.22;7314017;19;130006;-39
2022/09/27 07:20:44;;;;;;;;;;;;;;;22.11;63.94;97394.63;7314162;19;128931;-38
2022/09/27 07:23:10;;;;;;;;;;;;;;;22.12;63.86;97393.59;7311157;19;129117;-39
2022/09/27 07:25:35;;;;;;;;;;;;;;;22.14;63.80;97391.59;7312353;19;130122;-38
2022/09/27 07:28:02;;;;;;;;;;;;;;;22.11;63.33;97392.00;7313817;19;129220;-37
2022/09/27 07:30:27;;;;;;;;;;;;;;;22.12;63.72;97398.84;7313456;19;129181;-37
2022/09/27 07:33:00;;;;;;;;;;;;;;;22.13;63.84;97397.84;7311763;19;129028;-37
2022/09/27 07:35:26;;;;;;;;;;;;;;;22.12;63.59;97391.00;7312568;19;129230;-38
2022/09/27 07:37:51;;;;;;;;;;;;;;;22.12;63.32;97394.44;7313127;19;130383;-38
2022/09/27 07:40:17;;;;;;;;;;;;;;;22.10;63.23;97393.81;7313233;19;129117;-38
2022/09/27 07:42:42;;;;;;;;;;;;;;;22.13;63.94;97405.72;7310691;19;129039;-37
2022/09/27 07:45:08;;;;;;;;;;;;;;;22.12;63.89;97393.59;7311028;19;129736;-41
2022/09/27 07:47:35;;;;;;;;;;;;;;;22.13;63.90;97396.03;7312041;19;130253;-40
2022/09/27 07:50:00;;;;;;;;;;;;;;;22.12;63.67;97389.19;7312712;19;128966;-38
2022/09/27 07:52:25;;;;;;;;;;;;;;;22.14;63.38;97394.22;7311404;19;128998;-36
2022/09/27 07:54:50;;;;;;;;;;;;;;;22.03;63.40;97379.91;7310329;19;129076;-38
2022/09/27 07:57:16;;;;;;;;;;;;;;;22.14;64.03;97399.47;7311772;19;129929;-38
2022/09/27 07:59:41;;;;;;;;;;;;;;;22.13;63.89;97395.25;7308951;19;129125;-36
2022/09/27 08:02:14;;;;;;;;;;;;;;;22.12;63.25;97394.44;7311682;19;129045;-39
2022/09/27 08:04:39;;;;;;;;;;;;;;;22.12;63.94;97393.59;7311391;19;129242;-38
2022/09/27 08:07:04;;;;;;;;;;;;;;;22.13;63.80;97390.00;7311706;19;130480;-40
2022/09/27 08:09:29;;;;;;;;;;;;;;;22.13;63.37;97395.25;7311881;19;129209;-37
2022/09/27 08:11:57;;;;;;;;;;;;;;;22.13;63.56;97395.25;7311531;19;129958;-38
2022/09/27 08:14:22;;;;;;;;;;;;;;;22.15;63.66;97393.25;7309587;19;130004;-37
2022/09/27 08:16:48;;;;;;;;;;;;;;;22.15;63.40;97398.47;7312136;19;129722;-37
2022/09/27 08:19:14;;;;;;;;;;;;;;;22.12;63.75;97393.59;7311304;19;130263;-37
2022/09/27 08:21:39;;;;;;;;;;;;;;;22.11;64.09;97403.28;7311190;19;129734;-37
2022/09/27 08:24:05;;;;;;;;;;;;;;;22.14;63.81;97394.22;7311762;19;130046;-40
2022/09/27 08:26:30;;;;;;;;;;;;;;;22.14;63.89;97396.84;7310701;19;131493;-38
2022/09/27 08:28:56;;;;;;;;;;;;;;;22.12;64.00;97399.66;7312077;19;129383;-39
2022/09/27 08:31:24;;;;;;;;;;;;;;;22.12;63.68;97393.59;7311969;19;130103;-39
2022/09/27 08:33:50;;;;;;;;;;;;;;;22.13;64.05;97408.31;7308651;19;129642;-39
2022/09/27 08:36:15;;;;;;;;;;;;;;;22.12;63.58;97398.84;7311582;19;130479;-40
2022/09/27 08:38:41;;;;;;;;;;;;;;;22.13;64.34;97400.47;7311143;19;129116;-38
2022/09/27 08:41:20;;;;;;;;;;;;;;;22.11;63.52;97402.47;7312795;19;129047;-38
2022/09/27 08:43:49;;;;;;;;;;;;;;;22.15;64.13;97403.72;7307845;19;130035;-37
2022/09/27 08:46:17;;;;;;;;;;;;;;;22.12;63.57;97409.31;7309096;19;129359;-38
2022/09/27 08:48:43;;;;;;;;;;;;;;;22.11;63.49;97402.47;7310882;19;128804;-37
2022/09/27 08:51:12;;;;;;;;;;;;;;;22.13;64.02;97408.31;7311627;19;129947;-40
2022/09/27 08:53:41;;;;;;;;;;;;;;;22.12;63.79;97414.53;7308587;19;130373;-38
2022/09/27 08:56:08;;;;;;;;;;;;;;;22.11;64.00;97418.19;7311502;19;129706;-38
2022/09/27 08:58:55;;;;;;;;;;;;;;;22.13;64.07;97411.72;7316703;19;129582;-39
2022/09/27 09:01:20;;;;;;;;;;;;;;;22.14;64.16;97402.06;7317221;19;129094;-39
2022/09/27 09:03:50;;;;;;;;;;;;;;;22.12;64.22;97404.91;7314775;19;130603;-40
2022/09/27 09:06:20;;;;;;;;;;;;;;;22.11;64.08;97403.28;7316724;19;130649;-37
2022/09/27 09:09:00;;;;;;;;;;;;;;;22.03;63.85;97384.34;7317377;19;129059;-37
2022/09/27 09:14:19;;;;;;;;;;;;;;;22.11;63.98;97392.81;7317355;19;129496;-38
2022/09/27 09:16:56;;;;;;;;;;;;;;;22.10;63.44;97398.25;7315509;19;129354;-39
2022/09/27 09:19:22;;;;;;;;;;;;;;;22.11;64.38;97407.72;7316342;19;129429;-38
2022/09/27 09:21:56;;;;;;;;;;;;;;;22.11;63.89;97397.25;7316378;19;129490;-38
2022/09/27 09:24:21;;;;;;;;;;;;;;;22.12;63.91;97420.59;7317003;19;130219;-37
2022/09/27 09:26:52;;;;;;;;;;;;;;;22.11;64.21;97419.00;7317777;19;130265;-39
2022/09/27 09:29:49;;;;;;;;;;;;;;;22.04;64.35;97406.88;7316445;19;129172;-38
2022/09/27 09:32:33;;;;;;;;;;;;;;;22.10;63.94;97422.59;7314821;19;129801;-38
2022/09/27 09:35:20;;;;;;;;;;;;;;;22.09;63.63;97425.41;7314565;19;129398;-36
2022/09/27 09:37:52;;;;;;;;;;;;;;;22.11;64.24;97419.00;7316643;19;129413;-37
2022/09/27 09:40:37;;;;;;;;;;;;;;;22.10;63.77;97421.81;7316440;19;128879;-38
2022/09/27 09:43:20;;;;;;;;;;;;;;;22.12;64.30;97412.75;7313949;19;129231;-37
2022/09/27 09:45:56;;;;;;;;;;;;;;;22.11;64.47;97407.72;7315810;19;129155;-38
2022/09/27 09:48:24;;;;;;;;;;;;;;;22.12;63.84;97409.31;7315354;19;130064;-39
2022/09/27 09:50:54;;;;;;;;;;;;;;;22.13;63.63;97408.31;7315119;19;130220;-39
2022/09/27 09:53:22;;;;;;;;;;;;;;;22.12;64.06;97398.84;7314516;19;128975;-38
2022/09/27 09:55:57;;;;;;;;;;;;;;;22.13;64.00;97403.09;7316189;19;129049;-38
2022/09/27 09:58:22;;;;;;;;;;;;;;;22.10;63.51;97400.88;7316228;19;129200;-37
2022/09/27 10:00:50;;;;;;;;;;;;;;;22.09;63.72;97400.06;7316425;19;129668;-38
2022/09/27 10:03:15;;;;;;;;;;;;;;;22.14;63.89;97404.69;7314077;19;129123;-37
2022/09/27 10:05:42;;;;;;;;;;;;;;;22.11;64.29;97397.25;7315091;19;129706;-37
2022/09/27 10:08:11;;;;;;;;;;;;;;;22.13;64.13;97401.25;7315762;19;129688;-36
2022/09/27 10:10:37;;;;;;;;;;;;;;;22.11;63.74;97392.81;7314204;19;129488;-38
2022/09/27 10:13:02;;;;;;;;;;;;;;;22.11;63.82;97402.47;7313192;19;129508;-39
2022/09/27 10:15:29;;;;;;;;;;;;;;;22.09;64.46;97394.00;7315280;19;129319;-42
2022/09/27 10:17:58;;;;;;;;;;;;;;;22.09;64.04;97396.63;7315729;19;131092;-38
2022/09/27 10:20:26;;;;;;;;;;;;;;;22.11;63.72;97397.25;7315549;19;130481;-36
2022/09/27 10:22:58;;;;;;;;;;;;;;;22.10;63.58;97400.88;7313984;19;129562;-39
2022/09/27 10:25:24;;;;;;;;;;;;;;;22.11;64.18;97405.09;7315197;19;129432;-37
2022/09/27 10:27:52;;;;;;;;;;;;;;;22.03;64.17;97389.56;7315848;19;129540;-39
2022/09/27 10:30:31;;;;;;;;;;;;;;;22.13;63.55;97408.31;7315180;19;129319;-38
2022/09/27 10:33:04;;;;;;;;;;;;;;;22.12;64.23;97414.53;7313928;19;128893;-37
2022/09/27 10:35:29;;;;;;;;;;;;;;;22.09;63.94;97407.09;7312577;19;130797;-39
2022/09/27 10:38:13;;;;;;;;;;;;;;;22.02;63.91;97398.41;7315465;19;129912;-37
2022/09/27 10:40:39;;;;;;;;;;;;;;;22.13;63.71;97418.78;7315183;19;129100;-40
2022/09/27 10:43:23;;;;;;;;;;;;;;;22.10;63.53;97429.66;7312471;19;129091;-38
2022/09/27 10:45:48;;;;;;;;;;;;;;;22.09;64.05;97452.41;7313941;19;129414;-38
2022/09/27 10:48:19;;;;;;;;;;;;;;;22.08;63.79;97449.97;7315602;19;129318;-37
2022/09/27 10:50:55;;;;;;;;;;;;;;;22.08;64.27;97455.22;7315029;19;129428;-38
2022/09/27 10:53:21;;;;;;;;;;;;;;;22.10;64.12;97463.69;7312539;19;131418;-40
2022/09/27 10:55:47;;;;;;;;;;;;;;;22.10;64.19;97461.06;7314744;19;129520;-39
2022/09/27 10:58:33;;;;;;;;;;;;;;;22.02;63.60;97445.50;7314229;19;129257;-37
2022/09/27 11:01:03;;;;;;;;;;;;;;;22.11;63.82;97471.34;7314477;19;129178;-38
2022/09/27 11:03:32;;;;;;;;;;;;;;;22.11;64.21;97470.50;7311537;19;131744;-38
2022/09/27 11:05:58;;;;;;;;;;;;;;;22.11;63.82;97467.91;7314807;19;128994;-37
2022/09/27 11:08:29;;;;;;;;;;;;;;;22.11;63.64;97467.91;7314084;19;129477;-40
2022/09/27 11:11:13;;;;;;;;;;;;;;;22.00;63.75;97458.78;7313849;19;128900;-38
2022/09/27 11:13:39;;;;;;;;;;;;;;;22.10;63.48;97466.28;7312507;19;129101;-38
2022/09/27 11:16:13;;;;;;;;;;;;;;;22.07;64.21;97480.56;7314135;19;129246;-39
2022/09/27 11:18:44;;;;;;;;;;;;;;;22.11;63.72;97486.22;7313007;19;129897;-38
2022/09/27 11:21:28;;;;;;;;;;;;;;;22.12;64.32;97482.59;7311304;19;129187;-38
2022/09/27 11:23:56;;;;;;;;;;;;;;;22.04;63.99;97480.94;7312493;19;129063;-37
2022/09/27 11:26:40;;;;;;;;;;;;;;;22.13;64.11;97486.84;7314143;19;129511;-38
2022/09/27 11:29:34;;;;;;;;;;;;;;;22.11;63.57;97491.44;7313289;19;129882;-36
2022/09/27 11:32:14;;;;;;;;;;;;;;;22.09;64.00;97489.03;7310862;19;128934;-39
2022/09/27 11:34:54;;;;;;;;;;;;;;;22.11;63.73;97491.44;7310896;19;129701;-37
2022/09/27 11:37:25;;;;;;;;;;;;;;;22.09;63.65;97489.03;7313362;19;129343;-37
2022/09/27 11:39:58;;;;;;;;;;;;;;;22.10;64.15;97498.47;7310863;19;129159;-40
2022/09/27 11:42:41;;;;;;;;;;;;;;;22.10;63.69;97497.69;7312600;19;129198;-38
2022/09/27 11:45:39;;;;;;;;;;;;;;;22.10;64.22;97495.09;7311426;19;129204;-38
2022/09/27 11:48:04;;;;;;;;;;;;;;;22.11;63.68;97501.91;7310540;19;129420;-37
2022/09/27 11:50:48;;;;;;;;;;;;;;;22.09;64.29;97498.69;7311991;19;129672;-39
2022/09/27 11:53:13;;;;;;;;;;;;;;;22.09;64.06;97499.50;7310993;19;129476;-38
2022/09/27 11:55:45;;;;;;;;;;;;;;;22.11;64.16;97501.91;7306150;19;129872;-39
2022/09/27 11:58:10;;;;;;;;;;;;;;;22.10;64.11;97505.53;7303995;19;130303;-37
2022/09/27 12:00:44;;;;;;;;;;;;;;;22.11;63.66;97496.69;7312474;19;129179;-39
2022/09/27 12:03:28;;;;;;;;;;;;;;;22.09;64.01;97503.91;7307774;19;128955;-38
2022/09/27 12:05:55;;;;;;;;;;;;;;;22.09;64.08;97509.97;7311201;19;129362;-38
2022/09/27 12:08:43;;;;;;;;;;;;;;;22.13;64.14;97510.38;7309939;19;129708;-37
2022/09/27 12:11:15;;;;;;;;;;;;;;;22.13;63.47;97511.19;7310739;19;130678;-37
2022/09/27 12:13:59;;;;;;;;;;;;;;;22.13;64.05;97505.16;7305471;19;129549;-36
2022/09/27 12:16:25;;;;;;;;;;;;;;;22.14;64.18;97493.69;7307959;19;129851;-37
2022/09/27 12:18:51;;;;;;;;;;;;;;;22.10;64.14;97500.31;7308853;19;129128;-39
2022/09/27 12:21:18;;;;;;;;;;;;;;;22.11;63.55;97496.69;7307308;19;129459;-37
2022/09/27 12:23:48;;;;;;;;;;;;;;;22.10;64.23;97498.47;7300971;19;129705;-37
2022/09/27 12:26:13;;;;;;;;;;;;;;;22.12;63.59;97508.75;7309928;19;129103;-37
2022/09/27 12:28:51;;;;;;;;;;;;;;;22.13;63.53;97510.38;7310231;19;129475;-37
2022/09/27 12:31:20;;;;;;;;;;;;;;;22.11;64.25;97509.78;7310397;19;129415;-38
2022/09/27 12:34:08;;;;;;;;;;;;;;;22.08;63.67;97503.09;7313914;19;129187;-38
2022/09/27 12:36:37;;;;;;;;;;;;;;;22.12;63.56;97503.53;7317334;19;129179;-39
2022/09/27 12:39:11;;;;;;;;;;;;;;;22.12;63.92;97514.00;7316811;19;130361;-39
2022/09/27 12:41:39;;;;;;;;;;;;;;;22.10;63.86;97516.03;7316693;19;129445;-36
2022/09/27 12:44:04;;;;;;;;;;;;;;;22.14;63.31;97517.22;7317055;19;129559;-39
2022/09/27 12:46:38;;;;;;;;;;;;;;;22.12;64.04;97508.75;7316930;19;129101;-37
2022/09/27 12:49:04;;;;;;;;;;;;;;;22.13;63.33;97502.53;7318281;19;129089;-39
2022/09/27 12:51:34;;;;;;;;;;;;;;;22.13;64.06;97505.16;7317598;19;130012;-37
2022/09/27 12:54:12;;;;;;;;;;;;;;;22.09;63.51;97498.69;7315947;19;129842;-36